Time;durP1;ratioP1;P1;durP2;ratioP2;P2;SDS_P1;SDS_P2;PMS_P1;PMS_P2;Temp;Humidity;BMP_temperature;BMP_pressure;BME280_temperature;BME280_humidity;BME280_pressure;Samples;Min_cycle;Max_cycle;Signal;HPM_P1;HPM_P2
2022/11/04 00:00:21;;;;;;;10.30;5.75;;;;;;;8.83;100.00;94905.31;1033018;28;20026;-72
2022/11/04 00:00:51;;;;;;;7.75;5.10;;;;;;;8.86;100.00;94917.88;1029405;28;20311;-71
2022/11/04 00:01:22;;;;;;;8.43;5.22;;;;;;;8.84;100.00;94912.09;1026907;28;20295;-71
2022/11/04 00:01:52;;;;;;;7.63;5.30;;;;;;;8.86;100.00;94915.25;1022334;28;20519;-71
2022/11/04 00:02:23;;;;;;;10.85;5.47;;;;;;;8.86;100.00;94915.25;1029700;28;20427;-70
2022/11/04 00:02:53;;;;;;;6.72;4.82;;;;;;;8.88;100.00;94913.13;1029978;28;20050;-72
2022/11/04 00:03:23;;;;;;;8.52;5.03;;;;;;;8.90;100.00;94908.41;1034928;28;20030;-71
2022/11/04 00:03:54;;;;;;;7.35;5.15;;;;;;;8.92;100.00;94909.72;1036336;28;20025;-70
2022/11/04 00:04:25;;;;;;;8.23;5.10;;;;;;;8.87;100.00;94890.63;1029425;28;20022;-72
2022/11/04 00:04:56;;;;;;;7.55;4.50;;;;;;;8.96;100.00;94904.72;1021265;28;20566;-73
2022/11/04 00:05:26;;;;;;;9.07;5.03;;;;;;;8.95;100.00;94901.31;1025050;28;20258;-72
2022/11/04 00:06:00;;;;;;;7.18;4.60;;;;;;;8.90;100.00;94893.50;1025324;28;20609;-71
2022/11/04 00:06:30;;;;;;;8.68;5.10;;;;;;;8.96;100.00;94907.34;1030234;28;20496;-71
2022/11/04 00:07:00;;;;;;;6.82;4.70;;;;;;;8.95;100.00;94908.38;1023076;28;20270;-73
2022/11/04 00:08:23;;;;;;;6.53;4.50;;;;;;;9.01;100.00;94896.03;1027220;28;20038;-71
2022/11/04 00:08:55;;;;;;;7.13;4.50;;;;;;;8.97;100.00;94901.03;1034234;28;20338;-71
2022/11/04 00:09:27;;;;;;;8.43;4.40;;;;;;;9.03;100.00;94910.41;1035826;28;20271;-71
2022/11/04 00:09:57;;;;;;;7.63;4.88;;;;;;;9.03;100.00;94899.19;1030523;28;20297;-71
2022/11/04 00:12:25;;;;;;;7.82;4.25;;;;;;;9.05;100.00;94908.28;1028290;28;20274;-71
2022/11/04 00:12:55;;;;;;;7.47;4.38;;;;;;;9.04;100.00;94911.97;1028232;28;20266;-74
2022/11/04 00:13:29;;;;;;;7.85;4.60;;;;;;;9.07;100.00;94908.03;1034415;28;20268;-70
2022/11/04 00:13:59;;;;;;;6.50;4.35;;;;;;;9.07;100.00;94915.88;1034411;28;20520;-71
2022/11/04 00:14:30;;;;;;;7.30;4.28;;;;;;;9.00;100.00;94895.25;1031716;28;20331;-70
2022/11/04 00:17:18;;;;;;;6.07;4.18;;;;;;;9.08;100.00;94902.50;1030408;28;20484;-70
2022/11/04 00:17:29;;;;;;;7.35;3.90;;;;;;;9.14;100.00;94911.13;1022610;29;20820;-70
2022/11/04 00:17:59;;;;;;;7.10;3.70;;;;;;;9.14;100.00;94921.59;1023925;28;20337;-70
2022/11/04 00:18:30;;;;;;;6.22;4.10;;;;;;;9.12;100.00;94910.59;1030680;28;20026;-72
2022/11/04 00:19:00;;;;;;;5.15;3.45;;;;;;;9.07;100.00;94900.19;1027575;28;20085;-72
2022/11/04 00:28:51;;;;;;;4.63;3.38;;;;;;;9.03;100.00;94941.03;1030553;28;20315;-69
2022/11/04 00:29:22;;;;;;;5.32;3.22;;;;;;;9.05;100.00;94954.63;1034656;28;20690;-72
2022/11/04 00:29:52;;;;;;;5.18;3.38;;;;;;;9.01;100.00;94946.53;1030990;28;20274;-72
2022/11/04 00:30:23;;;;;;;5.25;2.92;;;;;;;9.02;100.00;94945.50;1028871;28;20425;-71
2022/11/04 00:30:54;;;;;;;3.95;2.70;;;;;;;9.01;100.00;94951.00;1022543;28;20105;-70
2022/11/04 00:33:53;;;;;;;4.40;3.28;;;;;;;8.95;100.00;94952.84;1032790;28;20257;-71
2022/11/04 00:34:24;;;;;;;6.43;3.42;;;;;;;9.00;100.00;94946.81;1034675;28;20315;-70
2022/11/04 00:34:54;;;;;;;4.80;3.17;;;;;;;9.01;100.00;94954.38;1034528;28;20269;-72
2022/11/04 00:35:25;;;;;;;3.13;2.53;;;;;;;9.05;100.00;94955.41;1030366;28;20051;-73
2022/11/04 00:35:56;;;;;;;4.38;3.17;;;;;;;9.02;100.00;94965.63;1023936;28;20019;-71
2022/11/04 00:36:26;;;;;;;3.90;2.78;;;;;;;9.00;100.00;94968.53;1022533;28;20050;-73
2022/11/04 00:36:58;;;;;;;4.63;2.90;;;;;;;8.99;100.00;94961.72;1026517;28;20026;-72
2022/11/04 00:37:28;;;;;;;3.75;2.65;;;;;;;9.00;100.00;94962.50;1026635;28;20015;-73
2022/11/04 00:37:59;;;;;;;5.60;2.75;;;;;;;9.01;100.00;94972.69;1023750;28;20255;-72
2022/11/04 00:38:29;;;;;;;4.40;3.00;;;;;;;8.95;100.00;94958.88;1026505;28;20501;-70
2022/11/04 00:39:00;;;;;;;3.33;2.40;;;;;;;9.03;100.00;94962.75;1022441;29;20110;-72
2022/11/04 00:39:30;;;;;;;4.45;2.90;;;;;;;9.02;100.00;94966.44;1018505;29;20027;-72
2022/11/04 00:40:01;;;;;;;3.90;2.70;;;;;;;8.99;100.00;94972.19;1021663;29;20027;-71
2022/11/04 00:40:31;;;;;;;4.70;2.63;;;;;;;9.00;100.00;94973.75;1026556;28;20034;-71
2022/11/04 00:41:02;;;;;;;3.88;2.47;;;;;;;9.00;100.00;94971.13;1030492;28;20010;-72
2022/11/04 00:41:32;;;;;;;5.70;2.72;;;;;;;9.02;100.00;94973.47;1025602;28;20014;-71
2022/11/04 00:42:02;;;;;;;3.80;2.67;;;;;;;9.00;100.00;94968.53;1037674;28;20026;-71
2022/11/04 00:42:33;;;;;;;4.10;2.67;;;;;;;9.03;100.00;94978.44;1037884;28;20032;-71
2022/11/04 00:43:03;;;;;;;4.18;2.65;;;;;;;9.01;100.00;94974.53;1030531;28;20429;-71
2022/11/04 00:43:34;;;;;;;4.28;3.13;;;;;;;8.99;100.00;94980.06;1022442;29;20082;-71
2022/11/04 00:44:04;;;;;;;3.60;2.50;;;;;;;9.03;100.00;94977.69;1022482;28;20082;-70
2022/11/04 00:44:35;;;;;;;4.13;2.70;;;;;;;9.13;100.00;94988.06;1022584;29;20019;-71
2022/11/04 00:45:06;;;;;;;5.00;2.70;;;;;;;9.10;100.00;94986.00;1026533;28;20018;-70
2022/11/04 00:45:36;;;;;;;4.05;2.47;;;;;;;9.08;100.00;94988.88;1022464;29;20450;-71
2022/11/04 00:46:07;;;;;;;2.50;2.10;;;;;;;9.06;100.00;94980.53;1014854;29;20249;-71
2022/11/04 00:46:37;;;;;;;2.78;2.20;;;;;;;9.10;100.00;94981.53;1020791;29;20020;-70
2022/11/04 00:47:07;;;;;;;3.17;2.53;;;;;;;9.05;100.00;94976.31;1022622;28;20019;-71
2022/11/04 00:47:38;;;;;;;3.28;2.25;;;;;;;9.03;100.00;94977.69;1030590;28;20027;-71
2022/11/04 00:48:08;;;;;;;5.28;2.60;;;;;;;9.08;100.00;94985.47;1034384;28;20018;-70
2022/11/04 00:48:39;;;;;;;4.45;2.78;;;;;;;9.03;100.00;94994.16;1030383;28;20022;-71
2022/11/04 00:49:09;;;;;;;3.67;2.65;;;;;;;8.97;100.00;94975.06;1030460;28;20022;-71
2022/11/04 00:49:40;;;;;;;3.95;2.88;;;;;;;9.02;100.00;94992.59;1030546;28;20029;-72
2022/11/04 00:50:10;;;;;;;7.53;3.08;;;;;;;8.96;100.00;94973.53;1033664;28;20018;-73
2022/11/04 00:50:41;;;;;;;3.55;2.65;;;;;;;9.00;100.00;94979.00;1034620;28;20022;-70
2022/11/04 00:51:11;;;;;;;6.10;3.40;;;;;;;8.99;100.00;94987.91;1038599;28;20033;-72
2022/11/04 00:51:42;;;;;;;3.63;2.70;;;;;;;8.97;100.00;94987.38;1028211;28;20116;-71
2022/11/04 00:52:12;;;;;;;4.55;2.72;;;;;;;8.88;100.00;94979.31;1029919;28;20038;-72
2022/11/04 00:52:42;;;;;;;3.92;2.75;;;;;;;8.91;100.00;94978.00;1022391;29;20027;-71
2022/11/04 00:53:13;;;;;;;6.13;2.67;;;;;;;8.97;100.00;94980.31;1030442;28;20031;-71
2022/11/04 00:53:43;;;;;;;3.50;2.45;;;;;;;8.95;100.00;94992.09;1030482;28;20455;-73
2022/11/04 00:54:14;;;;;;;3.05;2.40;;;;;;;8.93;100.00;94988.97;1030304;28;20030;-71
2022/11/04 00:54:44;;;;;;;3.67;2.70;;;;;;;8.97;100.00;94980.31;1022598;29;20023;-70
2022/11/04 00:55:15;;;;;;;3.08;2.55;;;;;;;8.88;100.00;94975.91;1018384;29;20422;-71
2022/11/04 00:55:45;;;;;;;5.32;2.55;;;;;;;8.95;100.00;94992.09;1022440;29;20039;-71
2022/11/04 00:56:16;;;;;;;4.10;2.47;;;;;;;8.94;100.00;94987.91;1022463;29;20031;-72
2022/11/04 00:56:49;;;;;;;7.72;2.20;;;;;;;8.97;100.00;94988.16;1016575;29;20262;-71
2022/11/04 00:57:19;;;;;;;4.15;2.50;;;;;;;8.95;100.00;94992.91;1022914;28;20027;-72
2022/11/04 00:57:50;;;;;;;4.65;2.22;;;;;;;8.97;100.00;94988.16;1026440;28;20270;-70
2022/11/04 00:58:20;;;;;;;3.05;2.28;;;;;;;9.00;100.00;94988.69;1026705;28;20030;-71
2022/11/04 00:58:51;;;;;;;2.72;2.00;;;;;;;8.98;100.00;94986.31;1026471;28;20027;-72
2022/11/04 00:59:21;;;;;;;3.33;2.20;;;;;;;8.91;100.00;94973.53;1026541;28;20081;-72
2022/11/04 00:59:52;;;;;;;3.22;2.35;;;;;;;8.95;100.00;94985.03;1018413;29;20028;-70
2022/11/04 01:00:22;;;;;;;2.95;2.20;;;;;;;9.03;100.00;94985.53;1026299;28;20161;-71
2022/11/04 01:00:52;;;;;;;2.75;2.00;;;;;;;9.02;100.00;94986.56;1026491;28;20015;-71
2022/11/04 01:01:23;;;;;;;3.47;2.33;;;;;;;8.99;100.00;94987.91;1026482;28;20019;-71
2022/11/04 01:01:54;;;;;;;2.88;1.80;;;;;;;8.93;100.00;94975.91;1026391;28;20023;-72
2022/11/04 01:02:25;;;;;;;3.65;2.17;;;;;;;8.89;100.00;94969.66;1025846;28;20097;-72
2022/11/04 01:02:55;;;;;;;3.35;2.45;;;;;;;8.92;100.00;94976.94;1036680;28;20343;-71
2022/11/04 01:03:26;;;;;;;1.90;1.55;;;;;;;9.04;100.00;94990.47;1037592;28;20033;-71
2022/11/04 01:03:56;;;;;;;4.28;2.17;;;;;;;9.05;100.00;94981.56;1027202;28;20049;-70
2022/11/04 01:04:27;;;;;;;3.22;2.20;;;;;;;9.03;100.00;94975.84;1027990;28;20026;-70
2022/11/04 01:04:57;;;;;;;3.75;1.92;;;;;;;9.03;100.00;94980.28;1030108;28;20089;-72
2022/11/04 01:05:27;;;;;;;2.80;2.08;;;;;;;9.00;100.00;94980.81;1033476;28;20081;-72
2022/11/04 01:05:58;;;;;;;2.83;1.98;;;;;;;8.97;100.00;94982.91;1031714;28;20033;-72
2022/11/04 01:06:28;;;;;;;2.30;1.80;;;;;;;8.98;100.00;94973.22;1023315;28;20701;-70
2022/11/04 01:06:59;;;;;;;3.25;2.28;;;;;;;8.94;100.00;94975.63;1025404;28;20408;-70
2022/11/04 01:07:30;;;;;;;4.07;1.92;;;;;;;8.99;100.00;94977.44;1032747;28;20486;-70
2022/11/04 01:08:00;;;;;;;2.55;1.67;;;;;;;8.94;100.00;94985.31;1032698;28;20030;-72
2022/11/04 01:08:30;;;;;;;2.28;1.77;;;;;;;8.88;100.00;94976.69;1037677;28;20107;-72
2022/11/04 01:09:03;;;;;;;4.55;2.08;;;;;;;8.92;100.00;94971.69;1033604;28;20234;-73
2022/11/04 01:09:33;;;;;;;3.10;1.92;;;;;;;8.94;100.00;94988.69;1032541;28;20300;-70
2022/11/04 01:10:05;;;;;;;3.35;1.88;;;;;;;8.91;100.00;94986.63;1034486;28;20288;-72
2022/11/04 01:10:43;;;;;;;2.47;1.80;;;;;;;8.92;100.00;94995.25;1031811;28;20113;-70
2022/11/04 01:11:14;;;;;;;1.77;1.38;;;;;;;8.91;100.00;94991.84;1033884;28;20320;-70
2022/11/04 01:11:44;;;;;;;2.42;1.40;;;;;;;8.93;100.00;94994.22;1034108;28;20324;-70
2022/11/04 01:12:15;;;;;;;4.90;1.77;;;;;;;8.94;100.00;94990.53;1026564;28;20280;-70
2022/11/04 01:12:46;;;;;;;2.42;1.50;;;;;;;8.95;100.00;94992.91;1026247;28;20095;-73
2022/11/04 01:13:16;;;;;;;2.65;1.90;;;;;;;8.93;100.00;94983.75;1026451;28;20043;-70
2022/11/04 01:13:49;;;;;;;2.55;1.70;;;;;;;8.88;100.00;94986.38;1031809;28;20373;-70
2022/11/04 01:14:19;;;;;;;3.83;2.08;;;;;;;8.87;100.00;94976.97;1038505;28;20040;-70
2022/11/04 01:14:50;;;;;;;2.10;1.50;;;;;;;8.90;100.00;94979.81;1038831;28;20272;-70
2022/11/04 01:15:23;;;;;;;2.80;1.58;;;;;;;8.95;100.00;94984.25;1034374;28;20037;-71
2022/11/04 01:15:57;;;;;;;2.20;1.80;;;;;;;8.98;100.00;94987.09;1030259;28;20069;-70
2022/11/04 01:16:27;;;;;;;2.63;1.58;;;;;;;8.97;100.00;94984.75;1034607;28;20261;-71
2022/11/04 01:16:58;;;;;;;3.60;1.70;;;;;;;8.98;100.00;94986.31;1034954;28;20277;-70
2022/11/04 01:17:28;;;;;;;2.75;2.03;;;;;;;9.00;100.00;94983.44;1034168;28;20037;-71
2022/11/04 01:17:59;;;;;;;2.15;1.40;;;;;;;8.88;100.00;94966.22;1034517;28;20045;-72
2022/11/04 01:18:29;;;;;;;2.83;1.30;;;;;;;8.95;100.00;94976.38;1034451;28;20101;-72
2022/11/04 01:19:00;;;;;;;3.38;1.85;;;;;;;9.01;100.00;94980.53;1030236;28;20042;-70
2022/11/04 01:19:30;;;;;;;5.13;1.42;;;;;;;9.01;100.00;94985.78;1034171;28;20056;-72
2022/11/04 01:20:01;;;;;;;1.95;1.40;;;;;;;9.00;100.00;94981.59;1026460;28;20030;-72
2022/11/04 01:20:31;;;;;;;1.65;1.17;;;;;;;8.98;100.00;94978.47;1030294;28;20038;-71
2022/11/04 01:21:03;;;;;;;3.55;1.60;;;;;;;8.98;100.00;94981.88;1025562;28;20266;-70
2022/11/04 01:21:34;;;;;;;2.38;1.42;;;;;;;8.99;100.00;94982.66;1026737;28;20546;-70
2022/11/04 01:22:04;;;;;;;1.83;1.50;;;;;;;9.00;100.00;94979.00;1026105;28;20261;-70
2022/11/04 01:22:35;;;;;;;1.65;1.13;;;;;;;9.02;100.00;94976.91;1025003;28;20072;-75
2022/11/04 01:23:05;;;;;;;2.05;1.20;;;;;;;9.01;100.00;94977.94;1026468;28;20528;-70
2022/11/04 01:23:35;;;;;;;1.40;1.10;;;;;;;8.98;100.00;94966.16;1030740;28;20038;-71
2022/11/04 01:24:06;;;;;;;2.42;1.50;;;;;;;9.00;100.00;94980.81;1035053;28;20029;-71
2022/11/04 01:24:36;;;;;;;2.20;1.42;;;;;;;8.99;100.00;94977.44;1030488;28;20042;-71
2022/11/04 01:25:08;;;;;;;3.00;1.17;;;;;;;9.00;100.00;94967.75;1030563;28;20030;-72
2022/11/04 01:25:40;;;;;;;1.70;1.30;;;;;;;8.91;100.00;94959.69;1033785;28;20527;-70
2022/11/04 01:26:18;;;;;;;1.50;1.23;;;;;;;8.89;100.00;94959.19;1035112;28;20819;-71
2022/11/04 01:26:48;;;;;;;2.15;1.30;;;;;;;8.96;100.00;94962.28;1029977;28;20281;-72
2022/11/04 01:27:19;;;;;;;2.60;1.40;;;;;;;8.97;100.00;94969.06;1027395;28;20752;-70
2022/11/04 01:27:49;;;;;;;1.45;1.30;;;;;;;8.97;100.00;94964.59;1027261;28;20030;-72
2022/11/04 01:28:20;;;;;;;1.83;1.20;;;;;;;8.97;100.00;94963.84;1030734;28;20072;-71
2022/11/04 01:28:51;;;;;;;1.50;1.00;;;;;;;8.88;100.00;94949.75;1033188;28;20029;-71
2022/11/04 01:29:21;;;;;;;4.25;1.25;;;;;;;8.87;100.00;94948.97;1033313;28;20058;-70
2022/11/04 01:29:51;;;;;;;1.77;1.45;;;;;;;8.97;100.00;94962.00;1028266;28;20664;-71
2022/11/04 01:30:22;;;;;;;1.30;1.15;;;;;;;8.96;100.00;94962.28;1026788;28;20570;-71
2022/11/04 01:30:52;;;;;;;2.13;1.10;;;;;;;8.95;100.00;94968.53;1020697;29;20035;-71
2022/11/04 01:31:27;;;;;;;1.40;1.00;;;;;;;8.95;100.00;94965.94;1022920;28;20023;-70
2022/11/04 01:31:58;;;;;;;2.58;0.95;;;;;;;8.96;100.00;94964.88;1025059;28;20019;-73
2022/11/04 01:32:28;;;;;;;1.95;1.50;;;;;;;8.94;100.00;94961.75;1024729;28;20656;-70
2022/11/04 01:32:58;;;;;;;2.22;1.23;;;;;;;8.93;100.00;94965.44;1026500;28;20031;-70
2022/11/04 01:33:29;;;;;;;1.40;1.17;;;;;;;8.92;100.00;94963.84;1023235;28;20082;-72
2022/11/04 01:33:59;;;;;;;1.42;1.33;;;;;;;8.90;100.00;94968.59;1034611;28;20033;-71
2022/11/04 01:34:30;;;;;;;2.88;1.10;;;;;;;8.89;100.00;94961.78;1034101;28;20026;-71
2022/11/04 01:35:00;;;;;;;2.60;1.30;;;;;;;8.90;100.00;94963.34;1034828;28;20361;-71
2022/11/04 01:35:31;;;;;;;1.55;1.13;;;;;;;8.89;100.00;94965.19;1038698;28;20061;-70
2022/11/04 01:36:02;;;;;;;1.40;1.15;;;;;;;8.87;100.00;94954.19;1038636;28;20677;-72
2022/11/04 01:36:32;;;;;;;2.22;1.00;;;;;;;8.90;100.00;94963.34;1033958;28;20094;-70
2022/11/04 01:37:02;;;;;;;1.92;1.13;;;;;;;8.83;100.00;94952.41;1034855;28;20028;-73
2022/11/04 01:37:33;;;;;;;1.85;0.90;;;;;;;8.90;100.00;94963.34;1026698;28;20030;-72
2022/11/04 01:38:03;;;;;;;2.58;1.50;;;;;;;8.81;100.00;94950.03;1022573;28;20011;-72
2022/11/04 01:38:34;;;;;;;2.88;1.05;;;;;;;8.83;100.00;94955.03;1022772;29;20022;-70
2022/11/04 01:39:04;;;;;;;2.03;0.80;;;;;;;8.86;100.00;94967.56;1026721;28;20027;-70
2022/11/04 01:39:35;;;;;;;1.75;1.10;;;;;;;8.83;100.00;94955.03;1030567;28;20080;-71
2022/11/04 01:40:06;;;;;;;1.33;1.05;;;;;;;8.84;100.00;94961.81;1026554;28;20396;-70
2022/11/04 01:40:37;;;;;;;1.80;1.02;;;;;;;8.78;100.00;94952.41;1018829;29;20170;-71
2022/11/04 01:41:08;;;;;;;1.35;1.05;;;;;;;8.83;100.00;94965.50;1018518;29;20046;-72
2022/11/04 01:41:38;;;;;;;1.90;1.00;;;;;;;8.74;100.00;94949.56;1022802;28;20379;-71
2022/11/04 01:42:12;;;;;;;1.80;1.33;;;;;;;8.82;100.00;94962.09;1022765;28;20038;-72
2022/11/04 01:42:42;;;;;;;1.73;1.10;;;;;;;8.81;100.00;94965.75;1022581;29;20019;-71
2022/11/04 01:43:14;;;;;;;1.67;1.20;;;;;;;8.84;100.00;94964.44;1021379;29;20332;-71
2022/11/04 01:44:02;;;;;;;1.60;1.00;;;;;;;8.81;100.00;94959.72;1027428;28;20130;-72
2022/11/04 01:44:41;;;;;;;3.28;1.10;;;;;;;8.82;100.00;94966.53;1029868;28;20258;-72
2022/11/04 01:45:13;;;;;;;0.98;0.80;;;;;;;8.81;100.00;94962.34;1035275;28;20251;-70
2022/11/04 01:45:45;;;;;;;1.20;1.10;;;;;;;8.61;100.00;94940.47;1027414;28;20290;-71
2022/11/04 01:46:26;;;;;;;1.20;0.80;;;;;;;8.82;100.00;94966.53;1026878;28;20270;-72
2022/11/04 01:46:56;;;;;;;1.13;0.95;;;;;;;8.80;100.00;94969.41;1023561;29;20270;-70
2022/11/04 01:47:39;;;;;;;1.00;0.90;;;;;;;8.77;100.00;94963.94;1023404;29;20338;-72
2022/11/04 01:48:21;;;;;;;2.53;0.95;;;;;;;8.81;100.00;94965.75;1027034;28;20489;-72
2022/11/04 01:48:52;;;;;;;1.65;1.13;;;;;;;8.73;100.00;94959.25;1027366;28;20258;-71
2022/11/04 01:49:28;;;;;;;1.42;0.98;;;;;;;8.70;100.00;94959.78;1027471;28;20272;-72
2022/11/04 01:50:08;;;;;;;1.48;1.00;;;;;;;8.78;100.00;94973.34;1019782;29;20267;-71
2022/11/04 01:50:38;;;;;;;2.08;1.05;;;;;;;8.76;100.00;94968.41;1023268;28;20263;-73
2022/11/04 01:51:08;;;;;;;1.38;1.02;;;;;;;8.79;100.00;94973.09;1023357;29;20255;-73
2022/11/04 01:51:39;;;;;;;2.60;1.10;;;;;;;8.81;100.00;94978.03;1031430;28;20042;-72
2022/11/04 01:52:13;;;;;;;1.25;0.88;;;;;;;8.81;100.00;94972.81;1027246;28;20023;-70
2022/11/04 01:52:49;;;;;;;1.33;1.08;;;;;;;8.78;100.00;94974.13;1027143;28;20042;-72
2022/11/04 01:53:45;;;;;;;1.88;1.00;;;;;;;8.78;100.00;94976.75;1020511;29;20773;-70
2022/11/04 01:54:16;;;;;;;1.65;1.23;;;;;;;8.77;100.00;94969.19;1025487;28;20274;-72
2022/11/04 01:54:47;;;;;;;1.77;1.10;;;;;;;8.74;100.00;94971.28;1023244;29;20262;-71
2022/11/04 01:55:26;;;;;;;1.52;0.90;;;;;;;8.75;100.00;94966.81;1023360;28;20094;-72
2022/11/04 01:55:58;;;;;;;1.42;1.05;;;;;;;8.74;100.00;94970.50;1015581;29;20271;-70
2022/11/04 01:56:28;;;;;;;3.20;1.20;;;;;;;8.74;100.00;94971.28;1023232;29;20279;-69
2022/11/04 01:56:59;;;;;;;1.20;0.95;;;;;;;8.68;100.00;94961.88;1019216;29;20705;-72
2022/11/04 01:57:34;;;;;;;1.75;1.20;;;;;;;8.75;100.00;94974.66;1023385;29;20043;-70
2022/11/04 01:58:07;;;;;;;1.55;1.15;;;;;;;8.68;100.00;94967.09;1024027;28;20023;-73
2022/11/04 01:58:39;;;;;;;1.00;0.80;;;;;;;8.73;100.00;94974.94;1031064;28;20265;-72
2022/11/04 01:59:16;;;;;;;2.30;1.20;;;;;;;8.67;100.00;94964.78;1028521;28;20703;-72
2022/11/04 01:59:47;;;;;;;1.50;1.05;;;;;;;8.70;100.00;94966.84;1015383;29;20334;-71
2022/11/04 02:00:17;;;;;;;2.05;0.95;;;;;;;8.70;100.00;94972.88;1019276;29;20390;-70
2022/11/04 02:00:48;;;;;;;1.70;1.17;;;;;;;8.66;100.00;94974.47;1023336;29;20027;-71
2022/11/04 02:01:18;;;;;;;1.10;0.85;;;;;;;8.71;100.00;94974.41;1027542;28;20662;-72
2022/11/04 02:01:49;;;;;;;2.70;0.90;;;;;;;8.71;100.00;94971.03;1027389;28;20371;-73
2022/11/04 02:02:19;;;;;;;1.40;1.00;;;;;;;8.65;100.00;94967.69;1030784;28;20085;-74
2022/11/04 02:02:56;;;;;;;3.03;1.15;;;;;;;8.68;100.00;94966.34;1023017;29;20034;-72
2022/11/04 02:03:35;;;;;;;1.50;0.80;;;;;;;8.73;100.00;94974.16;1031286;28;20026;-70
2022/11/04 02:04:54;;;;;;;1.20;1.00;;;;;;;8.67;100.00;94976.00;1035090;28;20261;-71
2022/11/04 02:05:26;;;;;;;1.45;0.82;;;;;;;8.76;100.00;94978.09;1023424;28;20310;-73
2022/11/04 02:05:56;;;;;;;1.00;0.90;;;;;;;8.73;100.00;94969.72;1029978;28;20081;-73
2022/11/04 02:06:26;;;;;;;1.08;0.90;;;;;;;8.75;100.00;94972.03;1025938;28;20320;-72
2022/11/04 02:06:59;;;;;;;1.55;1.00;;;;;;;8.73;100.00;94966.31;1024919;28;20082;-70
2022/11/04 02:07:30;;;;;;;1.73;1.00;;;;;;;8.68;100.00;94961.88;1031396;28;20105;-70
2022/11/04 02:08:01;;;;;;;1.25;0.90;;;;;;;8.76;100.00;94972.84;1027378;28;20274;-72
2022/11/04 02:08:32;;;;;;;2.70;1.05;;;;;;;8.71;100.00;94966.56;1030359;28;20301;-71
2022/11/04 02:09:02;;;;;;;0.65;0.60;;;;;;;8.69;100.00;94962.69;1027254;28;20731;-73
2022/11/04 02:09:33;;;;;;;1.25;0.98;;;;;;;8.66;100.00;94953.53;1031460;28;20833;-72
2022/11/04 02:10:04;;;;;;;1.45;1.08;;;;;;;8.76;100.00;94973.63;1031305;28;20034;-71
2022/11/04 02:10:36;;;;;;;2.47;0.90;;;;;;;8.69;100.00;94958.22;1027412;28;20707;-71
2022/11/04 02:11:06;;;;;;;1.30;1.00;;;;;;;8.72;100.00;94978.63;1023252;29;20027;-71
2022/11/04 02:13:15;;;;;;;1.77;1.05;;;;;;;8.69;100.00;94976.53;1028138;28;20369;-71
2022/11/04 02:13:50;;;;;;;1.17;0.68;;;;;;;8.60;100.00;94959.84;1025432;28;20753;-71
2022/11/04 02:14:21;;;;;;;2.03;0.85;;;;;;;8.62;100.00;94968.22;1023394;29;20266;-72
2022/11/04 02:14:51;;;;;;;1.05;0.90;;;;;;;8.67;100.00;94976.00;1019362;29;20251;-72
2022/11/04 02:15:37;;;;;;;1.88;1.40;;;;;;;8.67;100.00;94972.63;1023052;28;20027;-70
2022/11/04 02:16:22;;;;;;;1.70;0.98;;;;;;;8.68;100.00;94974.97;1025439;28;20509;-72
2022/11/04 02:16:56;;;;;;;1.00;0.88;;;;;;;8.68;100.00;94974.19;1031401;28;20253;-71
2022/11/04 02:17:47;;;;;;;1.45;0.90;;;;;;;8.65;100.00;94962.44;1027102;28;20364;-71
2022/11/04 02:18:17;;;;;;;;;;;;;;;8.67;100.00;94976.00;1023865;29;20791;-70
2022/11/04 02:19:19;;;;;;;0.90;0.80;;;;;;;8.68;100.00;94966.34;1027028;28;19906;-72
2022/11/04 02:20:17;;;;;;;1.13;0.90;;;;;;;8.67;100.00;94976.00;1024335;28;20039;-72
2022/11/04 02:20:53;;;;;;;3.40;0.90;;;;;;;8.68;100.00;94972.34;1030789;28;20910;-71
2022/11/04 02:21:27;;;;;;;1.00;0.80;;;;;;;8.71;100.00;94966.56;1030143;28;20249;-71
2022/11/04 02:22:06;;;;;;;1.55;0.85;;;;;;;8.70;100.00;94970.25;1031245;28;20261;-71
2022/11/04 02:22:48;;;;;;;0.93;0.60;;;;;;;8.70;100.00;94970.25;1030693;28;20257;-70
2022/11/04 02:23:27;;;;;;;1.83;0.80;;;;;;;8.70;100.00;94969.47;1034481;28;20749;-72
2022/11/04 02:24:22;;;;;;;2.25;0.93;;;;;;;8.69;100.00;94963.47;1037095;28;20319;-70
2022/11/04 02:24:55;;;;;;;1.50;0.90;;;;;;;8.70;100.00;94965.03;1035399;28;20344;-73
2022/11/04 02:25:56;;;;;;;1.50;0.95;;;;;;;8.69;100.00;94976.53;1034617;28;20249;-72
2022/11/04 02:27:15;;;;;;;1.25;0.88;;;;;;;8.69;100.00;94978.38;1033921;28;20237;-70
2022/11/04 02:28:01;;;;;;;2.28;1.00;;;;;;;8.70;100.00;94977.31;1029862;28;20253;-70
2022/11/04 02:28:45;;;;;;;2.08;0.95;;;;;;;8.76;100.00;94971.00;1030764;28;20986;-71
2022/11/04 02:29:24;;;;;;;1.48;0.95;;;;;;;8.75;100.00;94969.44;1026096;28;20266;-71
2022/11/04 02:30:10;;;;;;;1.10;0.82;;;;;;;8.74;100.00;94963.41;1027036;28;20269;-71
2022/11/04 02:30:47;;;;;;;1.27;0.88;;;;;;;8.64;100.00;94947.00;1030694;28;20726;-70
2022/11/04 02:31:30;;;;;;;3.63;1.15;;;;;;;8.71;100.00;94974.41;1034810;28;20313;-71
2022/11/04 02:32:42;;;;;;;1.60;0.98;;;;;;;8.77;100.00;94977.03;1033590;28;20833;-71
2022/11/04 02:33:22;;;;;;;2.63;0.90;;;;;;;8.77;100.00;94972.56;1021485;29;20290;-72
2022/11/04 02:33:55;;;;;;;0.77;0.60;;;;;;;8.76;100.00;94968.41;1015504;29;20264;-72
2022/11/04 02:34:40;;;;;;;0.98;0.80;;;;;;;8.77;100.00;94966.56;1010763;29;20055;-70
2022/11/04 02:35:33;;;;;;;1.08;0.82;;;;;;;8.76;100.00;94962.41;1014657;29;20275;-71
2022/11/04 02:36:32;;;;;;;0.80;0.60;;;;;;;8.75;100.00;94966.81;1022842;28;20271;-71
2022/11/04 02:37:28;;;;;;;1.17;0.80;;;;;;;8.76;100.00;94962.41;1015788;29;21102;-72
2022/11/04 02:38:12;;;;;;;0.70;0.70;;;;;;;8.70;100.00;94948.56;1015805;29;20932;-70
2022/11/04 02:38:50;;;;;;;0.75;0.73;;;;;;;8.71;100.00;94956.13;1015698;29;20268;-71
2022/11/04 02:39:42;;;;;;;1.17;0.70;;;;;;;8.70;100.00;94959.00;1025497;28;20870;-70
2022/11/04 02:40:33;;;;;;;1.55;0.65;;;;;;;8.69;100.00;94960.06;1018822;29;20336;-72
2022/11/04 02:41:24;;;;;;;1.15;0.65;;;;;;;8.68;100.00;94967.09;1025843;28;20317;-72
2022/11/04 02:42:00;;;;;;;1.52;0.85;;;;;;;8.66;100.00;94958.78;1032360;28;20332;-71
2022/11/04 02:43:04;;;;;;;1.75;0.98;;;;;;;8.66;100.00;94969.22;1026064;28;20518;-72
2022/11/04 02:43:59;;;;;;;0.98;0.80;;;;;;;8.65;100.00;94959.81;1030710;28;20785;-71
2022/11/04 02:44:38;;;;;;;1.27;0.73;;;;;;;8.64;100.00;94971.31;1030189;28;20396;-71
2022/11/04 02:45:18;;;;;;;2.92;1.00;;;;;;;8.65;100.00;94961.63;1018576;29;21174;-71
2022/11/04 02:45:58;;;;;;;1.00;0.90;;;;;;;8.61;100.00;94955.38;1018560;29;20267;-71
2022/11/04 02:46:42;;;;;;;1.30;0.68;;;;;;;8.64;100.00;94960.84;1022646;28;20954;-72
2022/11/04 02:47:18;;;;;;;1.77;0.70;;;;;;;8.63;100.00;94954.06;1022733;29;20062;-70
2022/11/04 02:48:12;;;;;;;0.95;0.70;;;;;;;8.64;100.00;94960.84;1022761;29;20270;-72
2022/11/04 02:49:03;;;;;;;1.52;1.08;;;;;;;8.65;100.00;94959.81;1014344;29;20312;-70
2022/11/04 02:49:39;;;;;;;0.80;0.73;;;;;;;8.62;100.00;94954.34;1008293;29;20640;-71
2022/11/04 02:50:32;;;;;;;0.88;0.80;;;;;;;8.61;100.00;94964.00;1021910;29;20058;-70
2022/11/04 02:51:09;;;;;;;1.08;0.70;;;;;;;8.61;100.00;94956.16;1030563;28;20265;-73
2022/11/04 02:52:04;;;;;;;2.97;0.85;;;;;;;8.55;100.00;94946.81;1028697;28;20257;-71
2022/11/04 02:52:40;;;;;;;1.52;0.98;;;;;;;8.59;100.00;94953.06;1026259;28;20258;-70
2022/11/04 02:53:14;;;;;;;2.25;1.02;;;;;;;8.59;100.00;94963.50;1022878;28;20255;-70
2022/11/04 02:53:48;;;;;;;0.80;0.63;;;;;;;8.61;100.00;94956.16;1030375;28;20331;-69
2022/11/04 02:54:21;;;;;;;1.23;0.77;;;;;;;8.59;100.00;94947.03;1022644;29;20274;-71
2022/11/04 02:54:59;;;;;;;1.15;0.73;;;;;;;8.52;100.00;94947.34;1030461;28;20265;-71
2022/11/04 02:55:42;;;;;;;0.90;0.60;;;;;;;8.58;100.00;94967.16;1018702;29;20355;-70
2022/11/04 02:56:12;;;;;;;3.10;0.70;;;;;;;8.55;100.00;94946.00;1018688;29;20274;-71
2022/11/04 02:56:45;;;;;;;1.00;0.85;;;;;;;8.56;100.00;94948.34;1026624;28;20285;-70
2022/11/04 02:57:18;;;;;;;1.15;0.73;;;;;;;8.52;100.00;94939.50;1022526;29;20453;-71
2022/11/04 02:57:49;;;;;;;1.67;0.82;;;;;;;8.55;100.00;94946.81;1018561;29;20423;-72
2022/11/04 02:58:29;;;;;;;1.40;0.60;;;;;;;8.61;100.00;94953.56;1027260;28;20266;-72
2022/11/04 02:59:21;;;;;;;1.58;0.93;;;;;;;8.59;100.00;94960.91;1026685;28;20022;-71
2022/11/04 03:00:02;;;;;;;0.60;0.55;;;;;;;8.58;100.00;94961.94;1026585;28;20397;-71
2022/11/04 03:00:33;;;;;;;1.05;0.60;;;;;;;8.57;100.00;94954.38;1027923;28;20250;-71